Impacts TAF Board
For situational awareness. Not to be used for flight planning purposes.
IDs:

KABY - Albany/SW Georgia Rg, GA, US

Issued at 1722 UTC 21 May 2022
Updated at 2155 UTC 21 May 2022
Potential Impact None Slight Moderate High
Time2053Z 21/22Z 21/23Z 22/00Z 22/01Z 22/02Z 22/03Z 22/04Z 22/05Z 22/06Z 22/07Z 22/08Z 22/09Z 22/10Z>>
Type OBS PRVL
  [TEMP]  
PRVL PRVL PRVL PRVL PRVL PRVL PRVL PRVL PRVL PRVL PRVL PRVL
VIS 10 >6
  [3]  
>6 >6 >6 >6 >6 >6 >6 >6 >6 >6 >6 >6
CIG -- --
  [30]  
-- -- -- -- -- -- -- -- -- -- -- --
Cover FEW SCT
  [BKN]  
SCT SCT SCT SCT SCT SCT SCT SCT SCT SCT SCT SCT
FltCat VFR VFR
  [MVFR]  
VFR VFR VFR VFR VFR VFR VFR VFR VFR VFR VFR VFR
WX -- --
  [TSRA]  
-- -- -- -- -- -- -- -- -- -- -- --
WDir 190 210
[210]
210 170 170 170 170 170 170 170 170 170 170 170
WSpd 12 10
  [10]  
10 3 3 3 3 3 3 3 3 3 3 3
WGst -- --
  [--]  
-- -- -- -- -- -- -- -- -- -- -- --
WSHgt -- --
[--]
-- -- -- -- -- -- -- -- -- -- -- --
WSDir -- --
[--]
-- -- -- -- -- -- -- -- -- -- -- --
WSSpd -- --
[--]
-- -- -- -- -- -- -- -- -- -- -- --
R05/23
XWnd -6 -2 -2 -2 -2 -2 -2 -2 -2 -2 -2 -2 -2 -2
XGst -- 0 -- -- -- -- -- -- -- -- -- -- -- --
R17/35
XWnd -6 -7 -7 -0 -0 -0 -0 -0 -0 -0 -0 -0 -0 -0
XGst -- 0 -- -- -- -- -- -- -- -- -- -- -- --
Raw TAF
KABY 211722Z 2118/2218 21010KT P6SM SCT040
  TEMPO 2120/2123 3SM TSRA BKN030CB
  FM220000 17003KT P6SM SCT050
  FM221500 23005KT P6SM VCTS SCT050CB


Raw METAR
KABY 212053Z 19012KT 10SM FEW041 30/17 A3015 RMK AO2 LTG DSNT NW-E SLP208 T03000172 53005
KABY 212004Z 18016G20KT 10SM SCT033 31/20 A3015 RMK AO2 LTG DSNT NW-NE T03110200
KABY 211953Z 19010KT 10SM VCTS CLR 32/21 A3014 RMK AO2 LTG DSNT N AND NE SLP205 T03170211
KABY 211853Z 21012G19KT 10SM VCTS FEW100 32/21 A3014 RMK AO2 LTG DSNT NE AND NW SLP203 T03220206
KABY 211851Z 20011G19KT 10SM VCTS FEW046 FEW100 32/21 A3014 RMK AO2 LTG DSNT NE AND NW

METAR Board
Radar Display
Forecast Discussion
For situational awareness. Not to be used for flight planning purposes.